Time,TemperatureF,DewpointF,PressureIn,WindDirection,WindDirectionDegrees,WindSpeedMPH,WindSpeedGustMPH,Humidity,HourlyPrecipIn,Conditions,Clouds,dailyrainin,SoftwareType,DateUTC
2013-04-02 00:07:00,47.6,47.0,30.18,North,5,0.0,1.0,96,0.00,,,0.01,weatherlink.com 1.10,2013-04-02 07:07:00,
2013-04-02 00:22:00,48.1,47.0,30.18,NNE,28,0.0,4.0,96,0.00,,,0.01,weatherlink.com 1.10,2013-04-02 07:22:00,
2013-04-02 00:37:00,46.9,46.0,30.18,NNE,28,0.0,5.0,96,0.00,,,0.00,weatherlink.com 1.10,2013-04-02 07:37:00,
2013-04-02 00:52:00,46.5,46.0,30.19,NNE,30,2.0,4.0,96,0.00,,,0.00,weatherlink.com 1.10,2013-04-02 07:52:00,
2013-04-02 01:07:00,46.8,46.0,30.19,NNE,29,0.0,3.0,96,0.00,,,0.00,weatherlink.com 1.10,2013-04-02 08:07:00,
2013-04-02 01:23:00,46.3,45.0,30.21,NNW,344,0.0,5.0,96,0.00,,,0.00,weatherlink.com 1.10,2013-04-02 08:23:00,
2013-04-02 01:38:00,46.2,45.0,30.21,NNE,21,0.0,0.0,96,0.00,,,0.00,weatherlink.com 1.10,2013-04-02 08:38:00,
2013-04-02 01:53:00,46.4,45.0,30.21,NNE,22,0.0,0.0,96,0.00,,,0.00,weatherlink.com 1.10,2013-04-02 08:53:00,
2013-04-02 02:08:00,46.1,45.0,30.21,NNE,30,0.0,0.0,96,0.00,,,0.00,weatherlink.com 1.10,2013-04-02 09:08:00,
2013-04-02 02:23:00,45.4,44.0,30.20,NNE,22,2.0,5.0,96,0.00,,,0.00,weatherlink.com 1.10,2013-04-02 09:23:00,
2013-04-02 02:38:00,45.1,44.0,30.19,NE,36,3.0,5.0,96,0.00,,,0.00,weatherlink.com 1.10,2013-04-02 09:38:00,
2013-04-02 02:53:00,45.2,44.0,30.18,NNE,29,0.0,1.0,96,0.00,,,0.00,weatherlink.com 1.10,2013-04-02 09:53:00,
2013-04-02 03:08:00,45.0,44.0,30.17,NNE,29,0.0,0.0,96,0.00,,,0.00,weatherlink.com 1.10,2013-04-02 10:08:00,
2013-04-02 03:23:00,45.1,44.0,30.17,NNE,28,0.0,1.0,96,0.00,,,0.00,weatherlink.com 1.10,2013-04-02 10:23:00,
2013-04-02 03:38:00,45.4,45.0,30.18,NNE,27,0.0,0.0,97,0.00,,,0.00,weatherlink.com 1.10,2013-04-02 10:38:00,
2013-04-02 03:53:00,45.9,45.0,30.18,NNE,26,0.0,0.0,97,0.00,,,0.00,weatherlink.com 1.10,2013-04-02 10:53:00,
2013-04-02 04:08:00,45.4,45.0,30.17,NNE,26,0.0,4.0,97,0.00,,,0.00,weatherlink.com 1.10,2013-04-02 11:08:00,
2013-04-02 04:23:00,45.3,45.0,30.17,NNE,31,0.0,3.0,97,0.00,,,0.00,weatherlink.com 1.10,2013-04-02 11:23:00,
2013-04-02 04:38:00,45.6,45.0,30.17,NNE,25,0.0,5.0,97,0.00,,,0.00,weatherlink.com 1.10,2013-04-02 11:38:00,
2013-04-02 04:53:00,45.4,45.0,30.16,NNE,27,1.0,5.0,97,0.00,,,0.00,weatherlink.com 1.10,2013-04-02 11:53:00,
2013-04-02 05:08:00,45.3,45.0,30.16,NNE,17,4.0,5.0,97,0.00,,,0.00,weatherlink.com 1.10,2013-04-02 12:08:00,
2013-04-02 05:23:00,45.2,44.0,30.17,NNE,23,0.0,1.0,97,0.00,,,0.00,weatherlink.com 1.10,2013-04-02 12:23:00,
2013-04-02 05:38:00,45.3,45.0,30.18,North,11,0.0,1.0,97,0.00,,,0.00,weatherlink.com 1.10,2013-04-02 12:38:00,
2013-04-02 05:53:00,45.8,45.0,30.18,North,11,0.0,0.0,97,0.00,,,0.00,weatherlink.com 1.10,2013-04-02 12:53:00,
2013-04-02 06:08:00,45.6,45.0,30.17,NNE,22,0.0,5.0,96,0.00,,,0.00,weatherlink.com 1.10,2013-04-02 13:08:00,
2013-04-02 06:23:00,45.2,44.0,30.17,NNE,17,0.0,5.0,97,0.00,,,0.00,weatherlink.com 1.10,2013-04-02 13:23:00,
2013-04-02 06:38:00,45.1,44.0,30.18,NNE,28,0.0,4.0,97,0.00,,,0.00,weatherlink.com 1.10,2013-04-02 13:38:00,
2013-04-02 06:53:00,45.7,45.0,30.18,NNE,20,0.0,1.0,97,0.00,,,0.00,weatherlink.com 1.10,2013-04-02 13:53:00,
2013-04-02 07:08:00,45.0,44.0,30.18,NNE,29,0.0,3.0,97,0.00,,,0.00,weatherlink.com 1.10,2013-04-02 14:08:00,
2013-04-02 07:23:00,44.9,44.0,30.18,NNE,33,0.0,6.0,97,0.00,,,0.00,weatherlink.com 1.10,2013-04-02 14:23:00,
2013-04-02 07:38:00,44.8,44.0,30.18,NNE,23,0.0,7.0,97,0.00,,,0.00,weatherlink.com 1.10,2013-04-02 14:38:00,
2013-04-02 07:53:00,45.0,44.0,30.18,North,5,2.0,3.0,97,0.00,,,0.00,weatherlink.com 1.10,2013-04-02 14:53:00,
2013-04-02 08:08:00,45.6,45.0,30.18,NNE,22,0.0,4.0,97,0.00,,,0.00,weatherlink.com 1.10,2013-04-02 15:08:00,
2013-04-02 08:23:00,45.8,45.0,30.18,North,360,0.0,6.0,97,0.00,,,0.00,weatherlink.com 1.10,2013-04-02 15:23:00,
2013-04-02 08:38:00,46.3,46.0,30.18,NNE,27,0.0,0.0,97,0.00,,,0.00,weatherlink.com 1.10,2013-04-02 15:38:00,
2013-04-02 08:53:00,46.5,46.0,30.18,NNE,26,2.0,4.0,97,0.00,,,0.00,weatherlink.com 1.10,2013-04-02 15:53:00,
2013-04-02 09:08:00,47.2,46.0,30.18,North,5,0.0,0.0,97,0.00,,,0.00,weatherlink.com 1.10,2013-04-02 16:08:00,
2013-04-02 09:23:00,48.0,47.0,30.18,North,350,0.0,3.0,97,0.00,,,0.00,weatherlink.com 1.10,2013-04-02 16:23:00,
2013-04-02 09:53:00,52.5,52.0,30.18,NNE,28,0.0,0.0,97,0.00,,,0.00,weatherlink.com 1.10,2013-04-02 16:53:00,
2013-04-02 10:08:00,54.1,52.0,30.19,SW,217,4.0,6.0,92,0.00,,,0.00,weatherlink.com 1.10,2013-04-02 17:08:00,
2013-04-02 10:23:00,51.8,50.0,30.20,SSW,213,5.0,7.0,93,0.00,,,0.00,weatherlink.com 1.10,2013-04-02 17:23:00,
2013-04-02 10:39:00,51.9,49.0,30.21,South,173,5.0,7.0,90,0.00,,,0.00,weatherlink.com 1.10,2013-04-02 17:39:00,
2013-04-02 11:09:00,51.0,49.0,30.21,SW,225,4.0,7.0,92,0.00,,,0.00,weatherlink.com 1.10,2013-04-02 18:09:00,
2013-04-02 11:24:00,50.5,48.0,30.22,SSW,211,2.0,7.0,92,0.00,,,0.00,weatherlink.com 1.10,2013-04-02 18:24:00,
2013-04-02 11:39:00,51.4,50.0,30.22,SSW,211,4.0,7.0,94,0.00,,,0.00,weatherlink.com 1.10,2013-04-02 18:39:00,
2013-04-02 11:54:00,51.9,49.0,30.22,SSW,208,4.0,6.0,91,0.00,,,0.00,weatherlink.com 1.10,2013-04-02 18:54:00,
2013-04-02 12:09:00,54.0,51.0,30.21,SSW,200,3.0,5.0,90,0.00,,,0.00,weatherlink.com 1.10,2013-04-02 19:09:00,
2013-04-02 12:24:00,53.8,51.0,30.20,SW,221,4.0,7.0,89,0.00,,,0.00,weatherlink.com 1.10,2013-04-02 19:24:00,
2013-04-02 12:39:00,52.9,50.0,30.20,SSW,196,3.0,7.0,88,0.00,,,0.00,weatherlink.com 1.10,2013-04-02 19:39:00,
2013-04-02 12:54:00,53.7,51.0,30.20,SSW,196,5.0,9.0,91,0.00,,,0.00,weatherlink.com 1.10,2013-04-02 19:54:00,
2013-04-02 13:09:00,53.9,51.0,30.20,SW,227,6.0,9.0,90,0.00,,,0.00,weatherlink.com 1.10,2013-04-02 20:09:00,
2013-04-02 13:39:00,53.9,51.0,30.18,SSW,213,7.0,8.0,89,0.00,,,0.00,weatherlink.com 1.10,2013-04-02 20:39:00,
2013-04-02 13:54:00,53.7,51.0,30.19,SW,216,6.0,8.0,89,0.00,,,0.00,weatherlink.com 1.10,2013-04-02 20:54:00,
2013-04-02 14:09:00,53.4,51.0,30.18,South,179,5.0,9.0,91,0.00,,,0.00,weatherlink.com 1.10,2013-04-02 21:09:00,
2013-04-02 14:24:00,54.1,51.0,30.18,SW,231,8.0,8.0,90,0.00,,,0.00,weatherlink.com 1.10,2013-04-02 21:24:00,
2013-04-02 14:39:00,53.6,51.0,30.19,SW,217,5.0,8.0,90,0.00,,,0.00,weatherlink.com 1.10,2013-04-02 21:39:00,
2013-04-02 14:54:00,52.6,50.0,30.19,SW,215,7.0,10.0,92,0.00,,,0.00,weatherlink.com 1.10,2013-04-02 21:54:00,
2013-04-02 15:09:00,53.6,51.0,30.18,SSW,198,6.0,11.0,90,0.00,,,0.00,weatherlink.com 1.10,2013-04-02 22:09:00,
2013-04-02 15:24:00,53.2,50.0,30.18,SW,214,8.0,10.0,89,0.00,,,0.00,weatherlink.com 1.10,2013-04-02 22:24:00,
2013-04-02 15:39:00,52.2,50.0,30.17,SW,226,4.0,10.0,91,0.00,,,0.00,weatherlink.com 1.10,2013-04-02 22:39:00,
2013-04-02 15:54:00,53.0,51.0,30.16,SSW,207,5.0,7.0,92,0.00,,,0.00,weatherlink.com 1.10,2013-04-02 22:54:00,
2013-04-02 16:09:00,53.0,50.0,30.15,SSW,201,3.0,8.0,90,0.00,,,0.00,weatherlink.com 1.10,2013-04-02 23:09:00,
2013-04-02 16:24:00,53.4,51.0,30.16,SSW,213,7.0,9.0,90,0.00,,,0.00,weatherlink.com 1.10,2013-04-02 23:24:00,
2013-04-02 16:39:00,52.3,50.0,30.15,SSW,211,5.0,9.0,90,0.00,,,0.00,weatherlink.com 1.10,2013-04-02 23:39:00,
2013-04-02 17:09:00,51.1,49.0,30.15,SW,223,6.0,9.0,93,0.00,,,0.00,weatherlink.com 1.10,2013-04-03 00:09:00,
2013-04-02 17:24:00,51.1,50.0,30.15,South,185,4.0,6.0,94,0.00,,,0.00,weatherlink.com 1.10,2013-04-03 00:24:00,
2013-04-02 17:39:00,50.3,49.0,30.15,SSW,202,2.0,8.0,94,0.00,,,0.00,weatherlink.com 1.10,2013-04-03 00:39:00,
2013-04-02 17:54:00,50.8,50.0,30.14,SE,138,5.0,8.0,95,0.00,,,0.00,weatherlink.com 1.10,2013-04-03 00:54:00,
2013-04-02 18:09:00,50.2,49.0,30.14,SSW,205,2.0,8.0,94,0.00,,,0.00,weatherlink.com 1.10,2013-04-03 01:09:00,
2013-04-02 18:39:00,49.8,49.0,30.13,SSW,196,0.0,4.0,95,0.00,,,0.00,weatherlink.com 1.10,2013-04-03 01:39:00,
2013-04-02 18:54:00,49.9,49.0,30.13,SSW,205,3.0,4.0,95,0.00,,,0.00,weatherlink.com 1.10,2013-04-03 01:54:00,
2013-04-02 19:09:00,49.6,48.0,30.13,SW,227,1.0,3.0,95,0.00,,,0.00,weatherlink.com 1.10,2013-04-03 02:09:00,
2013-04-02 19:24:00,49.3,48.0,30.14,SSE,154,0.0,3.0,95,0.00,,,0.00,weatherlink.com 1.10,2013-04-03 02:24:00,
2013-04-02 19:54:00,49.0,48.0,30.14,SSW,194,0.0,4.0,96,0.00,,,0.00,weatherlink.com 1.10,2013-04-03 02:54:00,
2013-04-02 20:09:00,48.7,48.0,30.15,SSW,196,0.0,0.0,96,0.00,,,0.00,weatherlink.com 1.10,2013-04-03 03:09:00,
2013-04-02 20:24:00,48.7,48.0,30.15,South,182,0.0,0.0,96,0.00,,,0.00,weatherlink.com 1.10,2013-04-03 03:24:00,
2013-04-02 20:39:00,48.3,47.0,30.16,South,179,0.0,0.0,96,0.00,,,0.00,weatherlink.com 1.10,2013-04-03 03:39:00,
2013-04-02 20:54:00,48.5,48.0,30.17,SSW,209,0.0,5.0,97,0.00,,,0.00,weatherlink.com 1.10,2013-04-03 03:54:00,
2013-04-02 21:09:00,48.3,48.0,30.18,SW,215,0.0,0.0,97,0.00,,,0.00,weatherlink.com 1.10,2013-04-03 04:09:00,
2013-04-02 21:24:00,48.4,48.0,30.19,SW,215,0.0,0.0,97,0.00,,,0.00,weatherlink.com 1.10,2013-04-03 04:24:00,
2013-04-02 21:39:00,48.2,47.0,30.19,South,173,0.0,0.0,97,0.00,,,0.00,weatherlink.com 1.10,2013-04-03 04:39:00,
2013-04-02 21:54:00,47.9,47.0,30.19,SSW,202,0.0,3.0,97,0.00,,,0.00,weatherlink.com 1.10,2013-04-03 04:54:00,
2013-04-02 22:09:00,47.8,47.0,30.19,SSW,202,0.0,0.0,97,0.00,,,0.00,weatherlink.com 1.10,2013-04-03 05:09:00,
2013-04-02 22:24:00,47.9,47.0,30.18,NNW,343,0.0,0.0,97,0.00,,,0.00,weatherlink.com 1.10,2013-04-03 05:24:00,
2013-04-02 22:39:00,47.9,47.0,30.18,SSW,200,0.0,0.0,97,0.00,,,0.00,weatherlink.com 1.10,2013-04-03 05:39:00,
2013-04-02 22:54:00,47.7,47.0,30.18,SSW,200,0.0,0.0,97,0.00,,,0.00,weatherlink.com 1.10,2013-04-03 05:54:00,
2013-04-02 23:09:00,47.6,47.0,30.17,WNW,301,0.0,0.0,97,0.00,,,0.00,weatherlink.com 1.10,2013-04-03 06:09:00,
2013-04-02 23:24:00,47.4,47.0,30.17,SW,216,0.0,0.0,97,0.00,,,0.00,weatherlink.com 1.10,2013-04-03 06:24:00,
2013-04-02 23:39:00,47.2,46.0,30.17,SW,218,0.0,0.0,97,0.00,,,0.00,weatherlink.com 1.10,2013-04-03 06:39:00,
2013-04-02 23:54:00,47.0,46.0,30.16,SSE,166,0.0,0.0,97,0.00,,,0.00,weatherlink.com 1.10,2013-04-03 06:54:00,